createdAt,value
2023-01-02T00:01:15.631Z,47.48
2023-01-02T00:03:17.392Z,47.51
2023-01-02T00:05:19.149Z,47.90
2023-01-02T00:07:20.670Z,47.91
2023-01-02T00:09:22.207Z,47.21
2023-01-02T00:11:23.823Z,46.92
2023-01-02T00:13:26.815Z,47.09
2023-01-02T00:15:33.408Z,46.82
2023-01-02T00:17:34.991Z,46.89
2023-01-02T00:19:36.572Z,46.76
2023-01-02T00:21:38.202Z,46.72
2023-01-02T00:23:40.080Z,46.64
2023-01-02T00:25:45.200Z,46.60
2023-01-02T00:27:46.737Z,46.42
2023-01-02T00:29:49.845Z,46.11
2023-01-02T00:31:51.370Z,46.10
2023-01-02T00:33:55.886Z,45.70
2023-01-02T00:35:57.532Z,45.93
2023-01-02T00:37:59.086Z,46.00
2023-01-02T00:40:00.749Z,45.74
2023-01-02T00:42:02.337Z,45.56
2023-01-02T00:44:03.900Z,45.68
2023-01-02T00:46:11.506Z,45.95
2023-01-02T00:48:13.693Z,45.91
2023-01-02T00:50:15.408Z,45.85
2023-01-02T00:52:16.983Z,45.87
2023-01-02T00:54:18.579Z,45.81
2023-01-02T00:56:20.183Z,46.33
2023-01-02T00:58:21.710Z,46.36
2023-01-02T01:00:28.937Z,46.19
2023-01-02T01:02:32.153Z,46.33
2023-01-02T01:04:34.392Z,45.92
2023-01-02T01:06:36.088Z,46.27
2023-01-02T01:08:38.984Z,46.45
2023-01-02T01:10:43.651Z,46.71
2023-01-02T01:12:45.209Z,46.57
2023-01-02T01:14:46.817Z,46.51
2023-01-02T01:16:48.394Z,46.64
2023-01-02T01:18:55.393Z,46.34
2023-01-02T01:20:56.938Z,46.19
2023-01-02T01:22:58.555Z,46.51
2023-01-02T01:25:00.260Z,46.50
2023-01-02T01:27:01.859Z,45.91
2023-01-02T01:29:03.681Z,46.32
2023-01-02T01:31:06.911Z,46.63
2023-01-02T01:33:08.418Z,46.43
2023-01-02T01:35:11.382Z,46.57
2023-01-02T01:37:13.227Z,46.54
2023-01-02T01:39:14.911Z,46.08
2023-01-02T01:41:20.754Z,46.36
2023-01-02T01:43:36.035Z,46.30
2023-01-02T01:45:41.461Z,46.54
2023-01-02T01:47:49.711Z,46.48
2023-01-02T01:50:02.814Z,46.39
2023-01-02T01:52:12.427Z,46.28
2023-01-02T01:54:17.052Z,46.69
2023-01-02T01:56:18.948Z,46.28
2023-01-02T01:58:24.040Z,46.44
2023-01-02T02:00:25.586Z,46.52
2023-01-02T02:02:29.636Z,46.17
2023-01-02T02:04:31.509Z,46.39
2023-01-02T02:06:33.114Z,45.92
2023-01-02T02:08:41.230Z,46.07
2023-01-02T02:10:43.204Z,46.42
2023-01-02T02:12:44.740Z,46.13
2023-01-02T02:14:46.309Z,46.24
2023-01-02T02:16:53.672Z,46.41
2023-01-02T02:19:23.703Z,46.45
2023-01-02T02:21:41.169Z,46.32
2023-01-02T02:24:33.083Z,46.26
2023-01-02T02:27:12.436Z,46.46
2023-01-02T02:30:02.375Z,46.27
2023-01-02T02:32:15.426Z,46.27
2023-01-02T02:34:23.129Z,45.88
2023-01-02T02:36:34.678Z,45.95
2023-01-02T02:38:50.655Z,46.00
2023-01-02T02:41:04.238Z,46.49
2023-01-02T02:43:14.176Z,46.35
2023-01-02T02:45:24.187Z,46.64
2023-01-02T02:47:33.581Z,45.95
2023-01-02T02:49:46.855Z,46.39
2023-01-02T02:51:53.163Z,46.13
2023-01-02T02:54:02.043Z,46.46
2023-01-02T02:56:07.533Z,46.06
2023-01-02T02:58:09.760Z,46.41
2023-01-02T03:02:31.672Z,46.65
2023-01-02T03:04:33.395Z,46.48
2023-01-02T03:06:49.175Z,46.70
2023-01-02T03:09:00.327Z,46.99
2023-01-02T03:11:03.527Z,47.14
2023-01-02T03:13:13.130Z,47.22
2023-01-02T03:15:20.407Z,46.72
2023-01-02T03:17:30.947Z,46.24
2023-01-02T03:19:50.018Z,46.09
2023-01-02T03:21:59.088Z,45.63
2023-01-02T03:24:05.620Z,45.42
2023-01-02T03:26:07.592Z,45.51
2023-01-02T03:28:11.982Z,45.53
2023-01-02T03:30:18.065Z,45.65
2023-01-02T03:32:23.461Z,45.47
2023-01-02T03:34:30.604Z,45.93
2023-01-02T03:36:37.252Z,45.69
2023-01-02T03:38:44.005Z,45.83
2023-01-02T03:40:50.127Z,45.75
2023-01-02T03:42:58.181Z,45.60
2023-01-02T03:45:05.778Z,45.75
2023-01-02T03:47:21.168Z,44.94
2023-01-02T03:49:30.041Z,45.13
2023-01-02T03:51:34.647Z,44.62
2023-01-02T03:53:38.777Z,44.86
2023-01-02T03:55:44.933Z,45.22
2023-01-02T03:57:57.659Z,45.30
2023-01-02T04:00:05.081Z,45.54
2023-01-02T04:02:11.828Z,45.55
2023-01-02T04:04:19.534Z,45.63
2023-01-02T04:06:28.164Z,45.61
2023-01-02T04:08:36.052Z,45.81
2023-01-02T04:10:39.051Z,45.28
2023-01-02T04:12:44.070Z,45.25
2023-01-02T04:14:49.556Z,45.17
2023-01-02T04:16:53.730Z,44.53
2023-01-02T04:19:01.499Z,44.91
2023-01-02T04:21:11.338Z,44.66
2023-01-02T04:23:17.716Z,44.60
2023-01-02T04:25:25.125Z,44.75
2023-01-02T04:27:31.675Z,44.79
2023-01-02T04:29:33.390Z,44.52
2023-01-02T04:31:43.690Z,44.88
2023-01-02T04:33:49.146Z,44.59
2023-01-02T04:35:50.687Z,44.95
2023-01-02T04:37:52.392Z,44.58
2023-01-02T04:39:55.611Z,44.57
2023-01-02T04:41:58.573Z,44.83
2023-01-02T04:44:00.555Z,44.75
2023-01-02T04:46:02.142Z,44.73
2023-01-02T04:48:04.195Z,44.79
2023-01-02T04:50:07.135Z,44.61
2023-01-02T04:52:08.809Z,44.84
2023-01-02T04:54:11.799Z,44.81
2023-01-02T04:56:13.327Z,44.83
2023-01-02T04:58:16.249Z,44.45
2023-01-02T05:00:18.056Z,44.56
2023-01-02T05:02:19.908Z,43.97
2023-01-02T05:04:21.517Z,43.95
2023-01-02T05:06:23.033Z,44.49
2023-01-02T05:08:26.551Z,44.37
2023-01-02T05:10:28.153Z,44.19
2023-01-02T05:12:32.977Z,45.71
2023-01-02T05:14:35.984Z,44.86
2023-01-02T05:16:37.593Z,44.52
2023-01-02T05:18:39.412Z,44.71
2023-01-02T05:20:40.973Z,44.18
2023-01-02T05:22:44.151Z,44.16
2023-01-02T05:24:45.814Z,43.62
2023-01-02T05:26:47.403Z,44.17
2023-01-02T05:28:49.413Z,44.16
2023-01-02T05:30:52.454Z,44.10
2023-01-02T05:32:54.202Z,43.84
2023-01-02T05:34:55.817Z,43.38
2023-01-02T05:36:57.602Z,42.92
2023-01-02T05:38:59.178Z,42.91
2023-01-02T05:41:02.444Z,43.12
2023-01-02T05:43:03.964Z,43.08
2023-01-02T05:45:06.734Z,43.08
2023-01-02T05:47:12.170Z,42.79
2023-01-02T05:49:17.816Z,43.56
2023-01-02T05:51:19.355Z,43.29
2023-01-02T05:53:20.961Z,43.18
2023-01-02T05:55:22.573Z,43.52
2023-01-02T05:57:24.102Z,43.76
2023-01-02T05:59:25.671Z,43.53
2023-01-02T06:01:29.415Z,43.42
2023-01-02T06:03:32.349Z,43.62
2023-01-02T06:05:35.135Z,44.06
2023-01-02T06:07:36.679Z,43.67
2023-01-02T06:09:38.218Z,43.98
2023-01-02T06:11:40.014Z,44.42
2023-01-02T06:13:44.326Z,43.79
2023-01-02T06:15:46.051Z,43.82
2023-01-02T06:17:47.627Z,43.72
2023-01-02T06:19:54.175Z,43.88
2023-01-02T06:21:55.915Z,43.25
2023-01-02T06:23:58.384Z,43.13
2023-01-02T06:26:03.185Z,43.39
2023-01-02T06:28:05.090Z,43.34
2023-01-02T06:30:08.173Z,43.09
2023-01-02T06:32:09.784Z,42.85
2023-01-02T06:34:11.380Z,42.83
2023-01-02T06:36:16.829Z,42.86
2023-01-02T06:38:18.494Z,42.58
2023-01-02T06:40:20.039Z,42.62
2023-01-02T06:42:21.608Z,42.51
2023-01-02T06:44:23.182Z,42.91
2023-01-02T06:46:24.735Z,42.61
2023-01-02T06:48:26.773Z,42.54
2023-01-02T06:50:34.604Z,43.00
2023-01-02T06:52:37.952Z,42.56
2023-01-02T06:54:39.531Z,42.76
2023-01-02T06:56:41.055Z,42.58
2023-01-02T06:58:42.767Z,43.08
2023-01-02T07:00:44.461Z,42.67
2023-01-02T07:02:46.181Z,42.80
2023-01-02T07:04:47.800Z,42.90
2023-01-02T07:06:49.635Z,42.44
2023-01-02T07:08:52.516Z,42.64
2023-01-02T07:10:54.114Z,42.41
2023-01-02T07:12:55.709Z,42.63
2023-01-02T07:14:57.294Z,42.83
2023-01-02T07:16:58.890Z,43.07
2023-01-02T07:19:00.631Z,43.07
2023-01-02T07:21:02.247Z,43.07
2023-01-02T07:23:03.906Z,42.75
2023-01-02T07:25:08.126Z,42.93
2023-01-02T07:27:09.685Z,43.19
2023-01-02T07:29:11.389Z,43.39
2023-01-02T07:31:15.374Z,42.96
2023-01-02T07:33:17.813Z,42.89
2023-01-02T07:35:19.419Z,42.65
2023-01-02T07:37:21.003Z,42.46
2023-01-02T07:39:22.826Z,42.38
2023-01-02T07:41:26.378Z,42.25
2023-01-02T07:43:27.926Z,41.94
2023-01-02T07:45:29.609Z,41.82
2023-01-02T07:47:31.988Z,42.33
2023-01-02T07:49:33.621Z,41.75
2023-01-02T07:51:38.276Z,41.93
2023-01-02T07:53:40.077Z,41.65
2023-01-02T07:55:41.637Z,41.86
2023-01-02T07:57:46.103Z,41.86
2023-01-02T07:59:47.741Z,41.90
2023-01-02T08:01:49.538Z,41.80
2023-01-02T08:03:51.381Z,41.79
2023-01-02T08:05:52.987Z,42.14
2023-01-02T08:07:57.434Z,42.20
2023-01-02T08:09:59.007Z,42.13
2023-01-02T08:12:01.132Z,41.95
2023-01-02T08:14:04.366Z,41.69
2023-01-02T08:16:08.348Z,41.50
2023-01-02T08:18:09.899Z,41.18
2023-01-02T08:20:11.733Z,41.33
2023-01-02T08:22:13.401Z,41.58
2023-01-02T08:24:15.001Z,41.66
2023-01-02T08:26:16.733Z,41.94
2023-01-02T08:28:18.256Z,41.68
2023-01-02T08:30:21.317Z,42.29
2023-01-02T08:32:22.980Z,41.86
2023-01-02T08:34:24.742Z,41.93
2023-01-02T08:36:26.377Z,42.11
2023-01-02T08:38:27.956Z,42.59
2023-01-02T08:40:30.235Z,43.23
2023-01-02T08:42:31.956Z,42.85
2023-01-02T08:44:33.953Z,42.61
2023-01-02T08:46:42.169Z,42.87
2023-01-02T08:48:44.508Z,43.02
2023-01-02T08:50:46.186Z,42.89
2023-01-02T08:52:47.797Z,42.79
2023-01-02T08:54:49.371Z,43.98
2023-01-02T08:56:50.919Z,43.53
2023-01-02T08:58:54.077Z,43.50
2023-01-02T09:00:55.617Z,43.46
2023-01-02T09:02:58.761Z,43.86
2023-01-02T09:05:00.432Z,43.81
2023-01-02T09:07:02.033Z,43.83
2023-01-02T09:09:11.026Z,43.47
2023-01-02T09:11:15.436Z,43.61
2023-01-02T09:13:17.001Z,43.32
2023-01-02T09:15:18.697Z,43.32
2023-01-02T09:17:20.276Z,43.27
2023-01-02T09:19:23.405Z,43.19
2023-01-02T09:21:25.196Z,43.78
2023-01-02T09:23:27.504Z,43.79
2023-01-02T09:25:29.076Z,43.70
2023-01-02T09:27:30.732Z,43.60
2023-01-02T09:29:32.332Z,43.67
2023-01-02T09:31:33.970Z,43.32
2023-01-02T09:33:35.557Z,43.01
2023-01-02T09:35:38.494Z,42.71
2023-01-02T09:37:40.089Z,43.13
2023-01-02T09:39:41.792Z,42.39
2023-01-02T09:41:46.417Z,42.24
2023-01-02T09:43:52.438Z,42.34
2023-01-02T09:45:58.624Z,42.69
2023-01-02T09:48:00.528Z,43.11
2023-01-02T09:50:04.118Z,42.67
2023-01-02T09:52:11.919Z,42.28
2023-01-02T09:54:24.115Z,42.58
2023-01-02T09:56:34.088Z,42.27
2023-01-02T09:58:42.390Z,42.11
2023-01-02T10:00:46.776Z,42.31
2023-01-02T10:03:04.355Z,43.06
2023-01-02T10:05:33.427Z,42.95
2023-01-02T10:07:44.447Z,42.81
2023-01-02T10:09:53.341Z,42.32
2023-01-02T10:12:03.905Z,42.26
2023-01-02T10:14:20.316Z,43.10
2023-01-02T10:16:27.555Z,42.74
2023-01-02T10:18:35.834Z,42.96
2023-01-02T10:20:41.625Z,43.89
2023-01-02T10:22:50.183Z,43.41
2023-01-02T10:24:59.334Z,43.51
2023-01-02T10:27:01.947Z,43.96
2023-01-02T10:29:10.532Z,43.96
2023-01-02T10:31:19.552Z,43.72
2023-01-02T10:33:27.968Z,43.96
2023-01-02T10:35:36.868Z,43.85
2023-01-02T10:37:38.599Z,44.27
2023-01-02T10:39:43.791Z,44.35
2023-01-02T10:41:48.688Z,44.60
2023-01-02T10:43:56.114Z,43.53
2023-01-02T10:45:57.843Z,43.69
2023-01-02T10:47:59.465Z,43.88
2023-01-02T10:50:13.047Z,43.41
2023-01-02T10:52:21.289Z,42.14
2023-01-02T10:54:22.848Z,42.20
2023-01-02T10:56:25.916Z,42.68
2023-01-02T10:58:29.460Z,42.96
2023-01-02T11:00:33.695Z,42.36
2023-01-02T11:02:38.224Z,43.25
2023-01-02T11:04:42.722Z,43.12
2023-01-02T11:06:55.476Z,42.85
2023-01-02T11:08:59.294Z,42.93
2023-01-02T11:11:00.921Z,43.04
2023-01-02T11:13:05.010Z,43.00
2023-01-02T11:15:11.681Z,43.68
2023-01-02T11:17:16.188Z,42.65
2023-01-02T11:19:24.056Z,43.83
2023-01-02T11:21:33.028Z,43.41
2023-01-02T11:23:37.104Z,43.89
2023-01-02T11:25:41.354Z,43.58
2023-01-02T11:27:44.830Z,45.23
2023-01-02T11:29:50.397Z,46.11
2023-01-02T11:31:58.250Z,46.59
2023-01-02T11:34:08.912Z,47.06
2023-01-02T11:36:16.527Z,46.23
2023-01-02T11:38:29.558Z,45.61
2023-01-02T11:40:32.546Z,46.37
2023-01-02T11:42:40.219Z,46.64
2023-01-02T11:44:54.653Z,46.46
2023-01-02T11:46:57.797Z,47.04
2023-01-02T11:49:03.563Z,46.35
2023-01-02T11:51:14.462Z,45.48
2023-01-02T11:53:21.555Z,46.04
2023-01-02T11:55:37.575Z,45.69
2023-01-02T11:57:44.669Z,46.09
2023-01-02T11:59:51.489Z,45.95
2023-01-02T12:02:05.361Z,45.92
2023-01-02T12:04:07.287Z,45.75
2023-01-02T12:06:18.946Z,46.53
2023-01-02T12:08:38.044Z,45.86
2023-01-02T12:10:53.941Z,46.58
2023-01-02T12:13:08.926Z,46.02
2023-01-02T12:15:37.697Z,46.71
2023-01-02T12:17:49.221Z,46.09
2023-01-02T12:20:09.209Z,46.08
2023-01-02T12:22:38.787Z,46.29
2023-01-02T12:24:58.573Z,45.81
2023-01-02T12:27:08.234Z,46.59
2023-01-02T12:29:47.094Z,48.11
2023-01-02T12:32:10.198Z,49.04
2023-01-02T12:34:28.890Z,49.20
2023-01-02T12:36:53.331Z,48.29
2023-01-02T12:39:11.350Z,48.70
2023-01-02T12:41:24.004Z,49.67
2023-01-02T12:43:39.417Z,48.74
2023-01-02T12:45:49.071Z,49.35
2023-01-02T12:48:07.940Z,49.62
2023-01-02T12:50:36.812Z,51.06
2023-01-02T12:52:50.116Z,51.12
2023-01-02T12:55:02.218Z,52.50
2023-01-02T12:57:16.983Z,52.73
2023-01-02T12:59:46.228Z,53.65
2023-01-02T13:01:55.006Z,53.99
2023-01-02T13:04:13.771Z,54.62
2023-01-02T13:06:44.024Z,54.79
2023-01-02T13:08:49.449Z,55.09
2023-01-02T13:10:51.826Z,53.67
2023-01-02T13:12:55.899Z,54.59
2023-01-02T13:15:01.136Z,55.09
2023-01-02T13:17:16.569Z,55.92
2023-01-02T13:19:26.101Z,54.85
2023-01-02T13:21:36.643Z,55.01
2023-01-02T13:23:40.492Z,54.80
2023-01-02T13:25:45.913Z,54.71
2023-01-02T13:27:49.578Z,54.28
2023-01-02T13:29:53.502Z,54.65
2023-01-02T13:31:56.654Z,54.75
2023-01-02T13:34:05.765Z,55.34
2023-01-02T13:36:19.187Z,54.64
2023-01-02T13:38:25.360Z,54.58
2023-01-02T13:40:30.210Z,55.18
2023-01-02T13:42:35.288Z,54.35
2023-01-02T13:44:41.904Z,55.52
2023-01-02T13:49:11.119Z,54.59
2023-01-02T13:51:15.635Z,54.94
2023-01-02T13:53:29.209Z,54.48
2023-01-02T13:55:32.581Z,54.42
2023-01-02T13:57:34.208Z,55.80
2023-01-02T13:59:50.718Z,55.21
2023-01-02T14:02:15.276Z,55.23
2023-01-02T14:04:37.538Z,54.03
2023-01-02T14:06:41.081Z,54.77
2023-01-02T14:09:10.632Z,55.53
2023-01-02T14:11:19.764Z,54.13
2023-01-02T14:13:34.403Z,54.70
2023-01-02T14:16:01.661Z,54.50
2023-01-02T14:18:05.259Z,53.71
2023-01-02T14:20:22.076Z,54.60
2023-01-02T14:22:23.945Z,53.46
2023-01-02T14:24:33.373Z,53.03
2023-01-02T14:26:37.030Z,53.20
2023-01-02T14:28:39.840Z,54.04
2023-01-02T14:30:42.446Z,53.22
2023-01-02T14:32:45.565Z,53.95
2023-01-02T14:34:49.855Z,53.66
2023-01-02T14:36:54.515Z,53.15
2023-01-02T14:38:57.099Z,53.58
2023-01-02T14:41:00.008Z,53.20
2023-01-02T14:43:04.305Z,52.91
2023-01-02T14:45:09.465Z,53.54
2023-01-02T14:47:14.660Z,53.11
2023-01-02T14:49:26.605Z,52.91
2023-01-02T14:51:34.600Z,53.48
2023-01-02T14:53:43.035Z,52.97
2023-01-02T14:55:47.442Z,53.59
2023-01-02T14:57:52.490Z,53.34
2023-01-02T14:59:55.960Z,53.08
2023-01-02T15:02:02.913Z,52.66
2023-01-02T15:04:18.221Z,53.79
2023-01-02T15:06:29.931Z,52.46
2023-01-02T15:08:39.733Z,52.73
2023-01-02T15:10:55.183Z,52.73
2023-01-02T15:13:00.178Z,52.51
2023-01-02T15:15:01.796Z,52.69
2023-01-02T15:17:08.224Z,53.20
2023-01-02T15:19:16.537Z,52.74
2023-01-02T15:21:24.541Z,53.14
2023-01-02T15:23:27.120Z,52.99
2023-01-02T15:25:37.176Z,52.20
2023-01-02T15:27:38.859Z,52.35
2023-01-02T15:29:50.203Z,52.61
2023-01-02T15:31:53.771Z,53.12
2023-01-02T15:33:57.273Z,52.39
2023-01-02T15:36:01.889Z,52.38
2023-01-02T15:38:03.555Z,52.27
2023-01-02T15:40:06.133Z,52.21
2023-01-02T15:42:12.356Z,52.21
2023-01-02T15:44:22.195Z,52.51
2023-01-02T15:46:25.307Z,53.12
2023-01-02T15:48:28.210Z,53.22
2023-01-02T15:50:31.697Z,53.34
2023-01-02T15:52:33.438Z,53.46
2023-01-02T15:54:36.184Z,53.68
2023-01-02T15:56:39.901Z,53.42
2023-01-02T15:58:48.342Z,53.94
2023-01-02T16:01:13.341Z,54.48
2023-01-02T16:04:01.141Z,54.55
2023-01-02T16:06:02.489Z,54.34
2023-01-02T16:08:07.704Z,54.83
2023-01-02T16:10:16.862Z,54.69
2023-01-02T16:12:20.868Z,55.67
2023-01-02T16:14:31.913Z,54.81
2023-01-02T16:16:43.936Z,55.00
2023-01-02T16:18:53.383Z,53.89
2023-01-02T16:20:58.461Z,53.08
2023-01-02T16:23:04.224Z,52.78
2023-01-02T16:25:08.734Z,53.34
2023-01-02T16:27:25.096Z,53.00
2023-01-02T16:29:26.995Z,52.95
2023-01-02T16:31:28.675Z,52.30
2023-01-02T16:33:32.110Z,52.48
2023-01-02T16:35:35.149Z,52.53
2023-01-02T16:37:38.138Z,52.40
2023-01-02T16:39:42.489Z,52.53
2023-01-02T16:41:57.578Z,52.34
2023-01-02T16:43:59.310Z,51.91
2023-01-02T16:46:01.204Z,51.89
2023-01-02T16:48:04.105Z,51.47
2023-01-02T16:50:11.331Z,51.44
2023-01-02T16:52:14.365Z,51.60
2023-01-02T16:54:19.328Z,51.13
2023-01-02T16:56:20.915Z,51.35
2023-01-02T16:58:23.449Z,50.98
2023-01-02T17:00:25.172Z,51.62
2023-01-02T17:02:26.853Z,51.89
2023-01-02T17:04:28.487Z,52.18
2023-01-02T17:06:30.172Z,52.47
2023-01-02T17:08:34.079Z,52.54
2023-01-02T17:10:35.832Z,52.95
2023-01-02T17:12:43.422Z,53.06
2023-01-02T17:14:45.292Z,53.08
2023-01-02T17:16:46.981Z,53.55
2023-01-02T17:18:48.702Z,53.43
2023-01-02T17:20:50.470Z,53.48
2023-01-02T17:22:52.137Z,53.39
2023-01-02T17:24:55.061Z,53.06
2023-01-02T17:26:56.824Z,53.25
2023-01-02T17:28:58.394Z,53.55
2023-01-02T17:31:00.020Z,53.43
2023-01-02T17:33:04.132Z,53.20
2023-01-02T17:35:06.773Z,52.95
2023-01-02T17:37:08.403Z,52.76
2023-01-02T17:39:10.053Z,52.64
2023-01-02T17:41:13.308Z,52.35
2023-01-02T17:43:15.008Z,52.07
2023-01-02T17:45:16.820Z,52.29
2023-01-02T17:47:57.381Z,52.41
2023-01-02T17:49:40.179Z,52.31
2023-01-02T17:51:41.808Z,52.71
2023-01-02T17:53:43.377Z,52.34
2023-01-02T17:55:51.084Z,52.38
2023-01-02T17:58:14.109Z,52.53
2023-01-02T18:00:16.421Z,51.84
2023-01-02T18:02:27.384Z,51.75
2023-01-02T18:04:29.159Z,52.32
2023-01-02T18:06:30.985Z,52.30
2023-01-02T18:08:32.680Z,52.30
2023-01-02T18:10:35.830Z,52.52
2023-01-02T18:12:37.880Z,52.09
2023-01-02T18:14:44.515Z,51.85
2023-01-02T18:16:46.990Z,51.59
2023-01-02T18:18:50.037Z,51.90
2023-01-02T18:20:52.832Z,51.93
2023-01-02T18:22:54.385Z,51.95
2023-01-02T18:24:56.777Z,51.32
2023-01-02T18:27:04.996Z,51.51
2023-01-02T18:29:16.273Z,51.60
2023-01-02T18:31:19.513Z,51.86
2023-01-02T18:33:21.209Z,51.58
2023-01-02T18:37:47.371Z,51.56
2023-01-02T18:39:49.961Z,51.71
2023-01-02T18:41:53.604Z,51.37
2023-01-02T18:44:00.509Z,51.41
2023-01-02T18:46:14.527Z,51.38
2023-01-02T18:48:19.289Z,51.61
2023-01-02T18:50:32.143Z,51.62
2023-01-02T18:52:35.312Z,51.24
2023-01-02T18:54:40.304Z,51.43
2023-01-02T18:56:41.968Z,51.19
2023-01-02T18:58:44.664Z,51.38
2023-01-02T19:00:46.675Z,51.77
2023-01-02T19:02:55.635Z,51.71
2023-01-02T19:04:58.929Z,51.39
2023-01-02T19:07:16.337Z,52.37
2023-01-02T19:09:21.364Z,51.60
2023-01-02T19:11:27.410Z,51.83
2023-01-02T19:13:32.976Z,52.13
2023-01-02T19:15:40.964Z,51.81
2023-01-02T19:17:42.602Z,51.70
2023-01-02T19:19:44.608Z,51.87
2023-01-02T19:21:49.120Z,51.72
2023-01-02T19:23:54.512Z,52.37
2023-01-02T19:26:00.335Z,52.06
2023-01-02T19:28:02.239Z,52.23
2023-01-02T19:30:08.238Z,52.00
2023-01-02T19:32:22.060Z,51.72
2023-01-02T19:34:28.578Z,51.75
2023-01-02T19:36:35.033Z,52.11
2023-01-02T19:38:38.214Z,51.80
2023-01-02T19:40:39.810Z,51.73
2023-01-02T19:42:41.607Z,52.03
2023-01-02T19:44:43.262Z,51.78
2023-01-02T19:46:48.137Z,51.90
2023-01-02T19:48:49.696Z,51.79
2023-01-02T19:50:51.464Z,52.00
2023-01-02T19:52:53.518Z,51.83
2023-01-02T19:54:56.732Z,52.21
2023-01-02T19:56:58.403Z,52.12
2023-01-02T19:59:00.243Z,51.95
2023-01-02T20:01:01.969Z,52.33
2023-01-02T20:03:04.158Z,52.30
2023-01-02T20:05:06.343Z,52.66
2023-01-02T20:07:08.268Z,52.45
2023-01-02T20:09:09.905Z,52.37
2023-01-02T20:11:13.108Z,52.24
2023-01-02T20:13:14.668Z,52.32
2023-01-02T20:15:18.949Z,52.20
2023-01-02T20:17:20.992Z,52.18
2023-01-02T20:19:22.692Z,52.12
2023-01-02T20:21:24.298Z,52.28
2023-01-02T20:23:25.887Z,52.49
2023-01-02T20:25:27.544Z,52.57
2023-01-02T20:27:30.542Z,52.62
2023-01-02T20:29:32.712Z,52.60
2023-01-02T20:31:34.362Z,52.62
2023-01-02T20:33:36.031Z,52.99
2023-01-02T20:35:37.681Z,52.94
2023-01-02T20:37:39.340Z,53.08
2023-01-02T20:39:40.950Z,53.02
2023-01-02T20:41:43.120Z,53.33
2023-01-02T20:43:46.078Z,53.92
2023-01-02T20:45:47.731Z,53.78
2023-01-02T20:47:49.581Z,54.06
2023-01-02T20:49:51.298Z,54.50
2023-01-02T20:51:53.034Z,54.02
2023-01-02T20:53:54.674Z,54.82
2023-01-02T20:55:56.278Z,54.70
2023-01-02T20:57:57.919Z,54.83
2023-01-02T21:00:01.014Z,54.70
2023-01-02T21:02:02.766Z,54.75
2023-01-02T21:04:06.924Z,54.80
2023-01-02T21:06:08.660Z,54.60
2023-01-02T21:08:10.497Z,54.29
2023-01-02T21:10:12.296Z,54.19
2023-01-02T21:12:14.223Z,54.73
2023-01-02T21:14:15.936Z,54.92
2023-01-02T21:16:19.081Z,54.79
2023-01-02T21:18:25.281Z,54.89
2023-01-02T21:20:27.839Z,54.63
2023-01-02T21:22:29.433Z,54.63
2023-01-02T21:24:32.108Z,55.03
2023-01-02T21:26:33.733Z,54.67
2023-01-02T21:28:35.628Z,54.86
2023-01-02T21:30:37.534Z,54.65
2023-01-02T21:32:43.003Z,54.81
2023-01-02T21:34:45.032Z,54.85
2023-01-02T21:36:46.889Z,54.79
2023-01-02T21:38:49.735Z,54.82
2023-01-02T21:40:51.388Z,55.27
2023-01-02T21:42:53.300Z,54.90
2023-01-02T21:44:54.915Z,54.79
2023-01-02T21:46:56.573Z,55.40
2023-01-02T21:48:59.688Z,55.26
2023-01-02T21:51:01.343Z,54.92
2023-01-02T21:53:03.020Z,54.72
2023-01-02T21:55:06.694Z,54.78
2023-01-02T21:57:08.870Z,54.90
2023-01-02T21:59:10.455Z,55.06
2023-01-02T22:01:12.236Z,55.17
2023-01-02T22:03:14.142Z,54.81
2023-01-02T22:05:18.146Z,55.18
2023-01-02T22:07:39.327Z,54.72
2023-01-02T22:09:41.377Z,54.54
2023-01-02T22:11:43.419Z,54.47
2023-01-02T22:13:45.009Z,54.25
2023-01-02T22:15:46.663Z,54.39
2023-01-02T22:17:48.339Z,54.16
2023-01-02T22:19:50.050Z,54.00
2023-01-02T22:21:54.060Z,53.86
2023-01-02T22:23:55.714Z,54.00
2023-01-02T22:25:57.379Z,54.04
2023-01-02T22:27:59.283Z,54.27
2023-01-02T22:32:23.975Z,54.11
2023-01-02T22:34:27.881Z,53.77
2023-01-02T22:36:29.823Z,54.04
2023-01-02T22:38:32.826Z,53.98
2023-01-02T22:40:34.477Z,53.74
2023-01-02T22:42:59.584Z,53.72
2023-01-02T22:44:58.552Z,53.81
2023-01-02T22:47:00.492Z,54.24
2023-01-02T22:49:02.222Z,53.88
2023-01-02T22:51:06.702Z,53.74
2023-01-02T22:53:15.401Z,53.84
2023-01-02T22:55:22.283Z,54.03
2023-01-02T22:57:23.903Z,54.03
2023-01-02T22:59:25.528Z,54.20
2023-01-02T23:01:31.770Z,54.07
2023-01-02T23:03:38.248Z,54.27
2023-01-02T23:05:40.665Z,54.13
2023-01-02T23:07:42.487Z,54.28
2023-01-02T23:09:44.328Z,53.77
2023-01-02T23:11:47.367Z,54.18
2023-01-02T23:13:56.023Z,54.25
2023-01-02T23:15:58.274Z,54.27
2023-01-02T23:17:59.948Z,54.20
2023-01-02T23:20:01.524Z,53.81
2023-01-02T23:22:03.104Z,53.75
2023-01-02T23:24:05.866Z,53.95
2023-01-02T23:26:07.933Z,53.98
2023-01-02T23:28:16.585Z,53.45
2023-01-02T23:30:32.444Z,52.99
2023-01-02T23:32:33.994Z,53.61
2023-01-02T23:34:36.091Z,53.51
2023-01-02T23:36:38.428Z,53.42
2023-01-02T23:38:40.059Z,53.59
2023-01-02T23:40:41.684Z,53.73
2023-01-02T23:42:43.263Z,53.84
2023-01-02T23:44:46.165Z,54.08
2023-01-02T23:46:47.970Z,54.33
2023-01-02T23:48:49.520Z,54.49
2023-01-02T23:50:56.471Z,54.58
2023-01-02T23:52:58.073Z,54.62
2023-01-02T23:54:59.588Z,55.20
2023-01-02T23:57:01.197Z,55.00
2023-01-02T23:59:11.683Z,55.10
